Time;durP1;ratioP1;P1;durP2;ratioP2;P2;SDS_P1;SDS_P2;PMS_P1;PMS_P2;Temp;Humidity;BMP_temperature;BMP_pressure;BME280_temperature;BME280_humidity;BME280_pressure;Samples;Min_cycle;Max_cycle;Signal;HPM_P1;HPM_P2
2022/04/10 00:00:43;;;;;;;4.47;2.00;;;;;;;8.29;52.15;99723.75;4899530;28;98314;-91
2022/04/10 00:03:12;;;;;;;4.32;2.63;;;;;;;8.29;51.88;99712.41;4865346;28;100941;-91
2022/04/10 00:05:38;;;;;;;6.88;2.55;;;;;;;8.36;52.23;99713.94;4865903;28;96726;-91
2022/04/10 00:08:04;;;;;;;5.20;2.22;;;;;;;8.20;52.13;99684.81;4852005;28;96886;-91
2022/04/10 00:10:29;;;;;;;4.97;2.25;;;;;;;8.21;52.10;99688.31;4896980;28;100603;-91
2022/04/10 00:12:55;;;;;;;4.05;2.55;;;;;;;8.26;52.22;99717.75;4897723;28;100872;-91
2022/04/10 00:15:21;;;;;;;7.60;1.92;;;;;;;8.27;52.25;99716.88;4890848;28;96680;-91
2022/04/10 00:17:46;;;;;;;4.50;2.15;;;;;;;8.23;52.33;99713.50;4882519;28;96957;-91
2022/04/10 00:20:12;;;;;;;4.97;2.35;;;;;;;8.22;52.67;99717.00;4884175;28;98042;-91
2022/04/10 00:22:44;;;;;;;3.45;1.63;;;;;;;8.20;52.34;99716.19;4868460;28;101266;-91
2022/04/10 00:25:12;;;;;;;4.28;1.80;;;;;;;8.15;52.66;99721.59;4868172;28;96836;-92
2022/04/10 00:27:39;;;;;;;2.97;1.90;;;;;;;8.14;52.62;99717.28;4884366;28;96869;-91
2022/04/10 00:30:06;;;;;;;3.78;2.00;;;;;;;8.19;52.77;99726.72;4868253;28;100152;-92
2022/04/10 00:32:32;;;;;;;3.47;1.80;;;;;;;8.18;52.50;99732.88;4884373;28;97750;-91
2022/04/10 00:34:58;;;;;;;6.43;2.30;;;;;;;8.13;52.79;99728.63;4884913;28;97103;-91
2022/04/10 00:37:25;;;;;;;3.42;1.50;;;;;;;8.12;53.03;99734.78;4878835;28;97226;-91
2022/04/10 00:39:51;;;;;;;2.45;1.65;;;;;;;8.15;53.17;99739.06;4868593;28;101147;-90
2022/04/10 00:42:16;;;;;;;4.82;1.63;;;;;;;8.01;52.98;99715.97;4868837;28;100140;-91
2022/04/10 00:44:42;;;;;;;4.85;2.28;;;;;;;8.01;52.84;99713.34;4868743;28;96790;-91
2022/04/10 00:47:10;;;;;;;2.45;1.90;;;;;;;8.02;53.16;99719.44;4870885;28;96808;-91
2022/04/10 00:49:38;;;;;;;3.08;1.50;;;;;;;8.08;53.00;99735.75;4902249;28;101125;-91
2022/04/10 00:52:07;;;;;;;3.72;1.90;;;;;;;8.10;53.09;99741.81;4899955;28;97006;-92
2022/04/10 00:54:34;;;;;;;2.45;1.50;;;;;;;8.05;53.00;99745.47;4872178;28;96759;-91
2022/04/10 00:57:00;;;;;;;4.60;1.98;;;;;;;8.02;53.13;99738.59;4880969;28;97563;-91
2022/04/10 00:59:27;;;;;;;4.05;1.80;;;;;;;8.10;53.15;99743.56;4896844;28;97598;-92
2022/04/10 01:01:53;;;;;;;5.68;2.35;;;;;;;8.04;53.03;99741.16;4890149;28;100650;-91
2022/04/10 01:04:18;;;;;;;4.35;2.15;;;;;;;7.99;53.32;99746.53;4887580;28;96717;-92
2022/04/10 01:06:47;;;;;;;4.28;2.45;;;;;;;8.00;53.15;99743.03;4884554;28;98026;-92
2022/04/10 01:09:16;;;;;;;4.00;2.00;;;;;;;8.00;53.30;99747.38;4868533;28;96767;-92
2022/04/10 01:11:42;;;;;;;5.32;2.08;;;;;;;8.06;53.32;99752.44;4867768;28;101384;-91
2022/04/10 01:14:09;;;;;;;3.53;2.20;;;;;;;7.99;53.51;99743.91;4883526;28;96677;-91
2022/04/10 01:16:37;;;;;;;5.05;2.35;;;;;;;7.98;53.23;99749.22;4883714;28;96843;-91
2022/04/10 01:19:04;;;;;;;5.15;2.08;;;;;;;7.93;53.39;99736.28;4883236;28;101228;-91
2022/04/10 01:21:33;;;;;;;4.88;2.28;;;;;;;7.78;53.39;99732.41;4877895;28;100744;-91
2022/04/10 01:24:01;;;;;;;2.80;1.67;;;;;;;7.88;53.78;99759.97;4884192;28;97001;-91
2022/04/10 01:26:29;;;;;;;4.28;2.30;;;;;;;7.88;53.65;99762.56;4883481;28;97312;-91
2022/04/10 01:29:09;;;;;;;7.28;2.17;;;;;;;7.74;53.54;99742.97;4883123;28;101947;-91
2022/04/10 01:31:38;;;;;;;5.03;2.50;;;;;;;7.87;53.43;99765.22;4884136;28;100317;-91
2022/04/10 01:34:05;;;;;;;5.68;2.10;;;;;;;7.70;53.75;99755.28;4876868;28;97066;-91
2022/04/10 01:36:34;;;;;;;4.60;2.10;;;;;;;7.79;53.90;99778.50;4865332;28;96936;-91
2022/04/10 01:39:02;;;;;;;3.80;2.53;;;;;;;7.51;54.31;99735.88;4898850;28;97994;-91
2022/04/10 01:41:30;;;;;;;3.25;2.30;;;;;;;7.52;54.25;99761.09;4867714;28;100187;-91
2022/04/10 01:43:58;;;;;;;4.35;2.42;;;;;;;7.68;54.02;99780.63;4868130;28;97204;-91
2022/04/10 01:46:29;;;;;;;3.13;2.40;;;;;;;7.71;54.09;99784.00;4867506;28;97493;-90
2022/04/10 01:48:56;;;;;;;3.42;2.10;;;;;;;7.54;54.12;99762.75;4868334;28;101060;-92
2022/04/10 01:51:22;;;;;;;3.45;2.17;;;;;;;7.64;54.17;99771.16;4886164;28;101128;-91
2022/04/10 01:53:48;;;;;;;3.70;2.30;;;;;;;7.66;53.95;99788.50;4871032;28;96683;-91
2022/04/10 01:56:14;;;;;;;3.60;2.00;;;;;;;7.65;54.13;99785.91;4902791;28;96842;-91
2022/04/10 01:58:41;;;;;;;4.30;2.08;;;;;;;7.51;54.37;99768.09;4898813;28;97342;-92
2022/04/10 02:01:08;;;;;;;2.93;2.17;;;;;;;7.66;53.91;99787.66;4887458;28;101230;-91
2022/04/10 02:03:34;;;;;;;7.20;2.00;;;;;;;7.64;54.26;99790.28;4884823;28;96781;-91
2022/04/10 02:06:00;;;;;;;5.65;2.15;;;;;;;7.65;53.91;99796.38;4885633;28;96904;-92
2022/04/10 02:08:27;;;;;;;7.93;2.67;;;;;;;7.50;54.81;99795.06;4869596;28;101861;-91
2022/04/10 02:10:53;;;;;;;4.00;2.00;;;;;;;7.55;54.42;99797.56;4870060;28;101877;-91
2022/04/10 02:13:19;;;;;;;4.53;2.37;;;;;;;7.59;54.36;99797.44;4886210;28;96617;-91
2022/04/10 02:15:45;;;;;;;6.70;2.70;;;;;;;7.51;54.47;99796.81;4885901;28;96849;-91
2022/04/10 02:18:12;;;;;;;4.63;2.10;;;;;;;7.62;54.22;99809.53;4882123;28;101387;-91
2022/04/10 02:20:38;;;;;;;3.55;2.10;;;;;;;7.20;54.23;99735.03;4883277;28;101668;-91
2022/04/10 02:23:03;;;;;;;4.20;2.15;;;;;;;7.33;54.51;99790.38;4883011;28;96912;-91
2022/04/10 02:25:29;;;;;;;4.43;1.90;;;;;;;7.45;54.46;99815.28;4883125;28;97603;-93
2022/04/10 02:27:55;;;;;;;4.93;2.30;;;;;;;7.44;54.41;99813.53;4866316;28;102033;-92
2022/04/10 02:30:20;;;;;;;4.63;2.20;;;;;;;7.42;54.48;99807.53;4898890;28;97265;-91
2022/04/10 02:32:46;;;;;;;3.33;2.00;;;;;;;7.39;54.53;99805.88;4867106;28;97221;-92
2022/04/10 02:35:12;;;;;;;2.55;1.63;;;;;;;7.35;54.80;99800.75;4877982;28;96860;-93
2022/04/10 02:37:38;;;;;;;3.45;1.77;;;;;;;7.43;54.35;99817.91;4885036;28;100518;-91
2022/04/10 02:40:05;;;;;;;4.05;2.30;;;;;;;7.41;54.47;99811.88;4863972;28;101858;-91
2022/04/10 02:42:33;;;;;;;6.05;2.38;;;;;;;7.36;54.69;99826.84;4882640;28;96786;-92
2022/04/10 02:45:01;;;;;;;3.97;2.25;;;;;;;7.35;54.70;99825.09;4868036;28;96890;-92
2022/04/10 02:47:26;;;;;;;3.37;2.00;;;;;;;7.28;54.80;99820.97;4882298;28;101756;-92
2022/04/10 02:49:52;;;;;;;3.17;2.10;;;;;;;7.31;54.84;99830.47;4881079;28;101424;-92
2022/04/10 02:52:20;;;;;;;5.72;2.45;;;;;;;7.31;54.78;99825.25;4863567;28;96699;-92
2022/04/10 02:54:46;;;;;;;5.32;2.10;;;;;;;7.22;55.00;99832.44;4862362;28;96850;-92
2022/04/10 02:57:11;;;;;;;3.25;2.03;;;;;;;7.24;54.98;99825.44;4880500;28;102093;-92
2022/04/10 02:59:37;;;;;;;6.85;2.42;;;;;;;7.29;54.73;99834.88;4885979;28;100143;-92
2022/04/10 03:02:03;;;;;;;3.70;1.90;;;;;;;7.33;54.57;99836.50;4874900;28;96966;-91
2022/04/10 03:04:29;;;;;;;4.38;1.98;;;;;;;7.27;54.96;99842.75;4869699;28;97049;-93
2022/04/10 03:06:55;;;;;;;3.88;2.08;;;;;;;7.18;55.13;99837.78;4866323;28;101220;-91
2022/04/10 03:09:21;;;;;;;5.10;2.13;;;;;;;7.11;54.93;99826.66;4882745;28;98076;-91
2022/04/10 03:11:47;;;;;;;3.47;1.87;;;;;;;7.12;54.96;99838.81;4882192;28;97221;-92
2022/04/10 03:14:13;;;;;;;4.72;1.98;;;;;;;7.10;54.74;99838.00;4866694;28;96837;-92
2022/04/10 03:16:38;;;;;;;4.82;1.92;;;;;;;7.15;54.66;99845.69;4883214;28;101222;-91
2022/04/10 03:19:04;;;;;;;3.65;2.28;;;;;;;7.18;54.88;99856.91;4890034;28;101525;-91
2022/04/10 03:21:30;;;;;;;2.72;1.98;;;;;;;7.10;54.60;99856.28;4888101;28;96893;-93
2022/04/10 03:23:57;;;;;;;3.67;2.08;;;;;;;7.19;54.71;99860.41;4869700;28;97239;-91
2022/04/10 03:26:23;;;;;;;3.08;1.83;;;;;;;7.19;55.06;99863.84;4884746;28;100531;-91
2022/04/10 03:28:49;;;;;;;3.03;1.90;;;;;;;7.11;54.82;99858.00;4869445;28;100350;-91
2022/04/10 03:31:16;;;;;;;5.10;2.20;;;;;;;7.14;54.67;99868.34;4869372;28;96635;-91
2022/04/10 03:33:41;;;;;;;3.63;2.07;;;;;;;7.13;55.07;99873.63;4885258;28;96761;-91
2022/04/10 03:36:07;;;;;;;6.03;1.85;;;;;;;7.12;54.65;99874.50;4875460;28;101372;-91
2022/04/10 03:38:33;;;;;;;3.53;1.67;;;;;;;6.96;55.08;99861.00;4892686;28;101005;-91
2022/04/10 03:40:59;;;;;;;4.38;2.10;;;;;;;7.02;55.04;99877.34;4868928;28;96683;-91
2022/04/10 03:43:25;;;;;;;4.60;2.13;;;;;;;6.97;55.05;99876.63;4869087;28;96842;-91
2022/04/10 03:45:50;;;;;;;5.87;2.20;;;;;;;7.06;54.78;99888.56;4885138;28;98243;-91
2022/04/10 03:48:16;;;;;;;4.33;2.30;;;;;;;6.96;54.71;99879.28;4871954;28;101757;-91
2022/04/10 03:50:42;;;;;;;6.50;2.10;;;;;;;6.97;54.86;99897.50;4900101;28;96652;-91
2022/04/10 03:53:09;;;;;;;2.40;2.00;;;;;;;7.00;55.00;99905.25;4869997;28;96896;-91
2022/04/10 03:55:35;;;;;;;4.78;2.72;;;;;;;6.96;54.92;99902.78;4867358;28;101516;-91
2022/04/10 03:58:04;;;;;;;4.93;3.10;;;;;;;6.88;55.01;99897.72;4894245;28;101940;-91
2022/04/10 04:00:31;;;;;;;6.40;3.17;;;;;;;6.88;55.23;99917.75;4884880;28;96909;-91
2022/04/10 04:03:02;;;;;;;5.35;3.00;;;;;;;6.90;55.25;99918.59;4890197;28;96826;-91
2022/04/10 04:05:32;;;;;;;2.92;1.98;;;;;;;6.55;55.39;99910.72;4880276;28;100664;-91
2022/04/10 04:07:58;;;;;;;4.50;2.22;;;;;;;6.76;55.50;99930.22;4880743;28;101555;-91
2022/04/10 04:10:28;;;;;;;3.57;2.17;;;;;;;6.76;55.28;99926.75;4883545;28;96809;-92
2022/04/10 04:12:55;;;;;;;3.00;2.00;;;;;;;6.91;55.24;99941.16;4884646;28;97003;-91
2022/04/10 04:15:20;;;;;;;4.53;2.10;;;;;;;6.81;55.17;99917.06;4884043;28;101457;-93
2022/04/10 04:17:47;;;;;;;3.60;1.98;;;;;;;6.92;55.11;99935.91;4868217;28;101128;-91
2022/04/10 04:20:13;;;;;;;4.67;2.93;;;;;;;6.90;55.13;99944.69;4884614;28;96700;-91
2022/04/10 04:22:40;;;;;;;3.65;2.17;;;;;;;6.90;55.02;99940.31;4869423;28;97196;-91
2022/04/10 04:25:06;;;;;;;5.30;2.50;;;;;;;6.93;55.08;99949.81;4868488;28;101443;-91
2022/04/10 04:27:33;;;;;;;7.37;2.43;;;;;;;6.94;54.77;99952.38;4899891;28;100071;-92
2022/04/10 04:30:01;;;;;;;5.30;2.50;;;;;;;6.95;54.97;99961.94;4867763;28;97795;-91
2022/04/10 04:32:27;;;;;;;6.77;2.43;;;;;;;6.86;54.88;99964.75;4883893;28;96968;-91
2022/04/10 04:34:53;;;;;;;5.63;2.33;;;;;;;6.86;55.38;99969.97;4868029;28;100279;-91
2022/04/10 04:37:19;;;;;;;6.40;3.00;;;;;;;6.92;54.69;99969.84;4868341;28;101146;-90
2022/04/10 04:39:44;;;;;;;4.63;2.50;;;;;;;6.89;54.88;99966.44;4878666;28;96886;-92
2022/04/10 04:42:10;;;;;;;5.40;2.60;;;;;;;6.92;55.09;99969.84;4906223;28;96018;-91
2022/04/10 04:44:36;;;;;;;5.47;2.40;;;;;;;7.00;54.92;99980.91;4874637;28;97344;-93
2022/04/10 04:47:01;;;;;;;6.93;3.03;;;;;;;6.83;54.91;99963.97;4849816;28;101450;-92
2022/04/10 04:49:27;;;;;;;6.90;2.80;;;;;;;6.68;55.17;99952.16;4896823;28;96759;-91
2022/04/10 04:51:53;;;;;;;5.23;3.40;;;;;;;6.85;55.31;99983.91;4879125;28;97131;-91
2022/04/10 04:54:19;;;;;;;5.80;3.10;;;;;;;6.80;55.57;99991.84;4867702;28;100228;-92
2022/04/10 04:56:46;;;;;;;9.00;3.47;;;;;;;6.60;55.46;99964.53;4867471;28;101260;-91
2022/04/10 04:59:14;;;;;;;5.07;3.00;;;;;;;6.89;55.18;100013.41;4868533;28;96703;-91
2022/04/10 05:01:41;;;;;;;6.40;3.47;;;;;;;6.85;55.01;100010.00;4887533;28;97007;-93
2022/04/10 05:04:10;;;;;;;7.20;2.93;;;;;;;6.89;55.24;100023.84;4884020;28;100537;-92
2022/04/10 05:06:35;;;;;;;5.83;2.80;;;;;;;6.78;55.25;100029.31;4879434;28;101574;-92
2022/04/10 05:09:01;;;;;;;9.23;2.83;;;;;;;6.68;55.57;100027.81;4879045;28;96641;-93
2022/04/10 05:11:27;;;;;;;3.83;2.33;;;;;;;6.38;56.05;100005.88;4867896;28;97518;-92
2022/04/10 05:13:53;;;;;;;7.23;2.37;;;;;;;6.59;56.33;100034.09;4891137;28;99671;-92
2022/04/10 05:16:19;;;;;;;5.03;2.00;;;;;;;6.41;57.03;100039.72;4867444;28;100904;-90
2022/04/10 05:18:47;;;;;;;6.43;2.43;;;;;;;6.40;56.98;100046.69;4870856;28;96794;-92
2022/04/10 05:21:14;;;;;;;4.70;2.57;;;;;;;6.39;56.99;100031.91;4886964;28;96847;-92
2022/04/10 05:23:40;;;;;;;8.63;3.57;;;;;;;6.56;56.76;100049.81;4863377;28;100372;-91
2022/04/10 05:26:12;;;;;;;4.50;2.60;;;;;;;6.48;56.71;100036.06;4884077;28;101453;-91
2022/04/10 05:28:41;;;;;;;4.27;2.07;;;;;;;6.46;56.88;100050.91;4882618;28;97986;-92
2022/04/10 05:31:06;;;;;;;5.20;2.87;;;;;;;6.48;56.62;100026.50;4866977;28;97965;-93
2022/04/10 05:33:36;;;;;;;7.20;2.80;;;;;;;6.54;56.26;100051.56;4879278;28;102031;-93
2022/04/10 05:36:03;;;;;;;6.43;2.93;;;;;;;6.71;56.26;100074.69;4862930;28;101427;-93
2022/04/10 05:38:31;;;;;;;6.13;2.33;;;;;;;6.73;56.36;100068.53;4887265;28;96669;-93
2022/04/10 05:40:58;;;;;;;3.80;2.72;;;;;;;6.71;55.95;100053.81;4858166;28;96898;-93
2022/04/10 05:43:28;;;;;;;4.27;2.30;;;;;;;6.83;55.87;100076.16;4878454;28;102006;-93
2022/04/10 05:45:55;;;;;;;3.87;2.20;;;;;;;6.69;55.82;100061.69;4882578;28;101725;-91
2022/04/10 05:48:21;;;;;;;3.33;2.20;;;;;;;6.53;56.31;100042.91;4881243;28;96839;-91
2022/04/10 05:50:47;;;;;;;5.82;2.85;;;;;;;6.73;56.03;100075.53;4863952;28;97521;-91
2022/04/10 05:53:13;;;;;;;6.22;2.85;;;;;;;6.87;55.88;100083.91;4865978;28;100955;-92
2022/04/10 05:55:40;;;;;;;3.73;2.10;;;;;;;6.97;56.04;100082.78;4878793;28;101403;-91
2022/04/10 05:58:10;;;;;;;4.88;2.47;;;;;;;6.95;55.65;100081.09;4880390;28;96714;-91
2022/04/10 06:00:38;;;;;;;4.53;2.60;;;;;;;7.00;55.58;100079.25;4864961;28;97349;-91
2022/04/10 06:03:13;;;;;;;5.95;2.75;;;;;;;7.09;55.59;100086.00;4877689;28;101893;-85
2022/04/10 06:05:42;;;;;;;6.13;2.70;;;;;;;7.13;55.67;100091.13;4892204;28;100323;-92
2022/04/10 06:08:16;;;;;;;8.07;3.70;;;;;;;7.13;55.68;100083.31;4876625;28;96804;-90
2022/04/10 06:10:42;;;;;;;12.80;5.60;;;;;;;7.21;55.42;100086.59;4891503;28;96953;-91
2022/04/10 06:13:11;;;;;;;15.90;6.97;;;;;;;7.24;55.48;100089.13;4885965;28;100537;-92
2022/04/10 06:15:46;;;;;;;14.68;7.65;;;;;;;7.18;55.80;100073.56;4870041;28;101721;-91
2022/04/10 06:18:12;;;;;;;16.05;7.97;;;;;;;7.25;55.78;100085.59;4876067;28;97227;-91
2022/04/10 06:20:40;;;;;;;12.63;5.33;;;;;;;7.24;55.20;100096.97;4859189;28;96775;-90
2022/04/10 06:23:08;;;;;;;7.40;2.67;;;;;;;7.22;55.49;100087.44;4860087;28;101345;-90
2022/04/10 06:25:34;;;;;;;8.97;3.23;;;;;;;7.28;55.52;100100.34;4873911;28;98569;-89
2022/04/10 06:28:00;;;;;;;7.70;4.07;;;;;;;7.21;55.34;100094.41;4903879;28;96735;-91
2022/04/10 06:30:35;;;;;;;5.63;2.83;;;;;;;7.34;55.61;100100.19;4867486;28;97023;-90
2022/04/10 06:33:00;;;;;;;4.37;2.00;;;;;;;7.24;55.66;100088.25;4889895;28;101110;-90
2022/04/10 06:35:27;;;;;;;6.77;2.40;;;;;;;7.26;55.80;100095.16;4863816;28;101415;-90
2022/04/10 06:37:55;;;;;;;6.03;2.20;;;;;;;7.35;55.36;100101.03;4892989;28;96754;-91
2022/04/10 06:40:21;;;;;;;5.70;2.37;;;;;;;7.30;55.62;100087.25;4901135;28;96939;-92
2022/04/10 06:42:48;;;;;;;6.03;2.63;;;;;;;7.32;55.61;100088.91;4898172;28;98745;-89
2022/04/10 06:45:22;;;;;;;5.87;2.43;;;;;;;7.32;55.33;100099.38;4882504;28;97778;-90
2022/04/10 06:47:53;;;;;;;5.20;2.58;;;;;;;7.35;55.11;100104.50;4884354;28;96763;-92
2022/04/10 06:50:19;;;;;;;11.63;2.70;;;;;;;7.37;55.04;100099.28;4869261;28;96844;-89
2022/04/10 06:52:45;;;;;;;7.27;2.20;;;;;;;7.40;55.01;100112.25;4899804;28;101933;-91
2022/04/10 06:55:11;;;;;;;5.15;2.20;;;;;;;7.37;54.48;100107.94;4883550;28;98118;-91
2022/04/10 06:57:38;;;;;;;7.77;2.73;;;;;;;7.36;54.69;100097.53;4868086;28;96735;-91
2022/04/10 07:00:04;;;;;;;5.57;2.05;;;;;;;7.40;54.56;100104.41;4883682;28;96866;-89
2022/04/10 07:02:33;;;;;;;5.10;2.00;;;;;;;7.39;54.36;100097.50;4899249;28;101030;-90
2022/04/10 07:04:59;;;;;;;4.90;2.22;;;;;;;7.42;54.35;100113.94;4862684;28;100566;-86
2022/04/10 07:07:27;;;;;;;8.73;2.50;;;;;;;7.32;54.14;100095.91;4880496;28;97183;-86
2022/04/10 07:09:53;;;;;;;5.20;2.50;;;;;;;7.38;54.38;100109.66;4882459;28;96834;-86
2022/04/10 07:12:19;;;;;;;6.93;3.22;;;;;;;7.25;54.12;100085.59;4867333;28;101400;-84
2022/04/10 07:14:48;;;;;;;7.67;2.33;;;;;;;7.49;53.91;100127.69;4865714;28;102064;-85
2022/04/10 07:17:14;;;;;;;5.77;2.70;;;;;;;7.44;53.72;100106.03;4882871;28;97327;-85
2022/04/10 07:19:41;;;;;;;6.38;2.28;;;;;;;7.48;54.12;100124.22;4870973;28;96855;-87
2022/04/10 07:24:51;;;;;;;4.43;2.00;;;;;;;7.52;54.08;100132.84;4885793;28;101918;-86
2022/04/10 07:27:16;;;;;;;9.17;3.80;;;;;;;7.51;53.87;100123.28;4867838;28;97126;-86
2022/04/10 07:29:53;;;;;;;5.40;2.30;;;;;;;7.53;54.37;100123.25;4884528;28;97181;-85
2022/04/10 07:32:21;;;;;;;9.97;3.37;;;;;;;7.63;54.26;100130.81;4883221;28;101907;-90
2022/04/10 07:34:55;;;;;;;5.43;2.58;;;;;;;7.75;54.38;100116.59;4869042;28;100502;-87
2022/04/10 07:37:37;;;;;;;7.78;2.60;;;;;;;7.83;54.47;100117.25;4883821;28;96819;-86
2022/04/10 07:40:04;;;;;;;5.82;2.22;;;;;;;7.93;54.06;100120.47;4867687;28;97007;-89
2022/04/10 07:42:31;;;;;;;4.88;2.08;;;;;;;7.93;53.81;100116.09;4892317;28;101540;-88
2022/04/10 07:44:59;;;;;;;5.75;3.10;;;;;;;7.98;53.37;100123.84;4864095;28;100462;-83
2022/04/10 07:47:39;;;;;;;5.55;2.25;;;;;;;7.87;53.15;100131.94;4858415;28;96738;-85
2022/04/10 07:50:04;;;;;;;4.57;2.60;;;;;;;7.78;53.01;100131.34;4898889;28;96837;-89
2022/04/10 07:52:30;;;;;;;4.88;2.20;;;;;;;7.88;53.23;100132.78;4876437;28;100628;-88
2022/04/10 07:55:03;;;;;;;5.40;2.25;;;;;;;7.74;53.31;100111.38;4863014;28;101407;-84
2022/04/10 07:57:32;;;;;;;5.20;2.33;;;;;;;7.81;53.43;100110.34;4857300;28;96819;-84
2022/04/10 07:59:58;;;;;;;5.18;2.10;;;;;;;7.92;53.76;100127.47;4865793;28;97579;-84
2022/04/10 08:02:50;;;;;;;4.75;2.25;;;;;;;8.08;53.35;100135.75;4892410;28;99333;-84
2022/04/10 08:05:39;;;;;;;5.88;2.38;;;;;;;7.98;53.55;100115.13;4870573;28;98129;-83
2022/04/10 08:08:30;;;;;;;4.78;2.10;;;;;;;8.18;53.71;100139.00;4889361;28;97048;-89
2022/04/10 08:10:56;;;;;;;5.53;2.38;;;;;;;8.08;53.84;100132.28;4865833;28;96959;-89
2022/04/10 08:13:21;;;;;;;3.83;2.20;;;;;;;8.19;54.07;100130.22;4893327;28;101595;-88
2022/04/10 08:15:48;;;;;;;4.20;2.42;;;;;;;8.31;53.61;100137.75;4859559;28;101640;-88
2022/04/10 08:18:15;;;;;;;6.70;2.17;;;;;;;8.53;52.68;100129.34;4890892;28;96868;-88
2022/04/10 08:20:40;;;;;;;8.40;2.40;;;;;;;8.79;52.20;100142.53;4859246;28;96836;-89
2022/04/10 08:23:06;;;;;;;4.95;2.35;;;;;;;8.94;51.97;100137.72;4859496;28;100353;-89
2022/04/10 08:25:32;;;;;;;5.45;2.53;;;;;;;9.25;51.45;100129.75;4893137;28;99936;-89
2022/04/10 08:27:57;;;;;;;8.05;2.40;;;;;;;9.28;50.96;100138.41;4882419;28;96695;-91
2022/04/10 08:30:23;;;;;;;6.93;2.30;;;;;;;9.25;50.23;100146.38;4864571;28;96894;-84
2022/04/10 08:32:49;;;;;;;3.92;2.17;;;;;;;9.14;49.54;100140.59;4858152;28;101499;-81
2022/04/10 08:35:16;;;;;;;5.65;2.28;;;;;;;9.02;48.99;100141.84;4879084;28;100772;-82
2022/04/10 08:37:42;;;;;;;4.53;1.50;;;;;;;8.98;48.96;100142.81;4875055;28;97051;-91
2022/04/10 08:40:08;;;;;;;6.05;1.80;;;;;;;8.96;48.22;100146.38;4860188;28;97969;-91
2022/04/10 08:42:34;;;;;;;6.28;1.70;;;;;;;8.92;48.12;100136.91;4858135;28;100984;-92
2022/04/10 08:44:59;;;;;;;4.38;1.45;;;;;;;8.78;47.69;100135.53;4884168;28;97995;-93
2022/04/10 08:47:25;;;;;;;6.10;1.70;;;;;;;8.83;47.40;100159.84;4904558;28;98062;-89
2022/04/10 08:49:52;;;;;;;9.40;1.95;;;;;;;8.71;47.54;100160.19;4870453;28;97571;-85
2022/04/10 08:52:20;;;;;;;7.30;1.80;;;;;;;8.72;47.96;100161.91;4863117;28;100433;-81
2022/04/10 08:54:46;;;;;;;7.03;1.92;;;;;;;8.70;48.37;100158.50;4886572;28;100779;-83
2022/04/10 08:57:12;;;;;;;4.25;1.80;;;;;;;8.64;48.27;100170.88;4885966;28;97211;-83
2022/04/10 08:59:38;;;;;;;4.70;2.13;;;;;;;8.57;47.93;100167.59;4869928;28;96943;-83
2022/04/10 09:02:04;;;;;;;4.95;2.28;;;;;;;8.33;48.69;100124.63;4870600;28;98132;-81
2022/04/10 09:04:31;;;;;;;4.88;2.35;;;;;;;8.58;48.68;100174.53;4890911;28;97414;-81
2022/04/10 09:06:59;;;;;;;8.80;2.70;;;;;;;8.59;48.75;100176.25;4890811;28;96718;-82
2022/04/10 09:09:25;;;;;;;7.93;2.10;;;;;;;8.47;49.05;100153.06;4900194;28;97470;-82
2022/04/10 09:11:53;;;;;;;3.47;2.00;;;;;;;8.60;48.85;100184.03;4890506;28;97650;-83
2022/04/10 09:14:23;;;;;;;4.53;1.60;;;;;;;8.60;48.30;100181.44;4871621;28;98367;-82
2022/04/10 09:17:09;;;;;;;6.22;1.63;;;;;;;8.53;48.58;100164.19;4874066;28;97145;-82
2022/04/10 09:19:36;;;;;;;3.35;1.38;;;;;;;8.69;48.48;100180.31;4894644;28;97021;-86
2022/04/10 09:22:37;;;;;;;4.97;1.90;;;;;;;8.73;48.85;100184.56;4896318;28;98497;-82
2022/04/10 09:25:13;;;;;;;6.27;1.97;;;;;;;8.73;48.30;100181.97;4891562;28;98044;-85
2022/04/10 09:27:46;;;;;;;4.53;1.77;;;;;;;8.65;48.26;100173.47;4904622;28;97434;-84
2022/04/10 09:30:13;;;;;;;4.65;1.80;;;;;;;8.65;48.50;100170.00;4895048;28;97681;-83
2022/04/10 09:32:41;;;;;;;5.20;1.63;;;;;;;8.59;48.42;100152.72;4878384;28;101514;-84
2022/04/10 09:35:08;;;;;;;6.40;1.98;;;;;;;9.74;47.31;100168.38;4886364;28;97915;-83
2022/04/10 09:37:48;;;;;;;5.18;2.10;;;;;;;10.69;46.88;100151.09;4888521;28;98031;-85
2022/04/10 09:40:28;;;;;;;7.38;1.67;;;;;;;11.09;44.45;100147.81;4874610;28;97410;-86
2022/04/10 09:43:06;;;;;;;5.45;1.83;;;;;;;10.94;43.82;100163.28;4894012;28;98742;-85
2022/04/10 09:45:39;;;;;;;6.22;1.75;;;;;;;10.63;43.82;100151.31;4877838;28;101949;-84
2022/04/10 09:48:24;;;;;;;3.85;1.50;;;;;;;10.46;43.77;100154.56;4895162;28;97336;-78
2022/04/10 09:50:54;;;;;;;4.88;1.75;;;;;;;10.71;43.09;100144.03;4894709;28;96930;-84
2022/04/10 09:53:21;;;;;;;6.00;1.52;;;;;;;10.95;42.36;100150.09;4895054;28;98045;-83
2022/04/10 09:55:55;;;;;;;5.32;1.50;;;;;;;10.88;41.57;100127.63;4874470;28;101196;-82
2022/04/10 09:58:21;;;;;;;3.80;1.45;;;;;;;10.78;41.68;100137.59;4877175;28;97081;-84
2022/04/10 10:00:48;;;;;;;5.05;1.73;;;;;;;10.57;41.67;100138.41;4878161;28;96964;-85
2022/04/10 10:03:14;;;;;;;5.88;1.60;;;;;;;10.42;41.60;100159.06;4878400;28;101618;-84
2022/04/10 10:05:40;;;;;;;8.43;1.90;;;;;;;10.25;42.65;100161.41;4878063;28;101219;-85
2022/04/10 10:08:07;;;;;;;5.45;1.80;;;;;;;10.15;42.62;100155.63;4879587;28;96793;-85
2022/04/10 10:10:34;;;;;;;4.80;1.65;;;;;;;10.14;43.13;100172.25;4881217;28;97043;-86
2022/04/10 10:13:07;;;;;;;6.68;2.15;;;;;;;10.12;43.57;100162.72;4876036;28;101419;-85
2022/04/10 10:15:36;;;;;;;4.70;1.42;;;;;;;10.25;43.35;100161.41;4898930;28;97405;-83
2022/04/10 10:18:07;;;;;;;6.70;1.88;;;;;;;10.69;42.84;100158.09;4894700;28;97249;-84
2022/04/10 10:20:34;;;;;;;5.97;2.53;;;;;;;10.71;42.22;100138.78;4886898;28;97048;-86
2022/04/10 10:23:01;;;;;;;4.00;1.50;;;;;;;10.76;42.54;100147.34;4873950;28;100125;-87
2022/04/10 10:25:49;;;;;;;5.30;1.77;;;;;;;10.80;41.84;100164.66;4883633;28;101530;-88
2022/04/10 10:28:33;;;;;;;5.10;1.60;;;;;;;10.61;42.18;100158.38;4868339;28;97199;-86
2022/04/10 10:31:17;;;;;;;7.13;1.60;;;;;;;10.41;42.87;100157.34;4890923;28;97971;-88
2022/04/10 10:34:04;;;;;;;4.78;1.40;;;;;;;10.31;43.33;100149.84;4879119;28;101786;-87
2022/04/10 10:36:31;;;;;;;5.85;2.13;;;;;;;10.35;44.43;100146.19;4892438;28;100328;-87
2022/04/10 10:38:57;;;;;;;5.28;1.85;;;;;;;10.79;44.53;100162.09;4883739;28;96803;-88
2022/04/10 10:41:23;;;;;;;5.63;1.88;;;;;;;10.99;43.79;100153.47;4872461;28;97001;-90
2022/04/10 10:43:49;;;;;;;4.43;1.77;;;;;;;11.05;43.88;100143.59;4906299;28;101897;-86
2022/04/10 10:46:20;;;;;;;4.65;2.00;;;;;;;11.08;43.00;100143.47;4881685;28;97955;-83
2022/04/10 10:48:46;;;;;;;4.68;2.17;;;;;;;11.01;42.33;100102.59;4900433;28;97219;-82
2022/04/10 10:51:11;;;;;;;6.53;1.83;;;;;;;11.45;43.18;100135.88;4898292;28;97202;-82
2022/04/10 10:53:52;;;;;;;4.97;1.60;;;;;;;11.39;41.87;100128.25;4898947;28;101528;-83
2022/04/10 10:56:22;;;;;;;4.38;1.60;;;;;;;11.48;41.42;100144.50;4897061;28;97398;-83
2022/04/10 10:58:48;;;;;;;5.22;1.70;;;;;;;11.45;41.33;100149.88;4864757;28;96861;-83
2022/04/10 11:01:26;;;;;;;3.97;1.90;;;;;;;11.18;41.14;100162.34;4878937;28;99092;-83
2022/04/10 11:04:06;;;;;;;7.97;2.05;;;;;;;10.78;43.55;100170.88;4889870;28;98035;-82
2022/04/10 11:06:43;;;;;;;7.82;2.17;;;;;;;10.42;44.20;100147.72;4877751;28;101055;-83
2022/04/10 11:09:28;;;;;;;4.72;1.35;;;;;;;10.52;45.60;100180.56;4879378;28;96888;-83
2022/04/10 11:11:56;;;;;;;5.90;1.65;;;;;;;10.40;44.98;100170.53;4878066;28;96894;-82
2022/04/10 11:14:39;;;;;;;7.63;1.48;;;;;;;10.41;44.59;100166.97;4897384;28;97564;-85
2022/04/10 11:17:09;;;;;;;3.17;1.17;;;;;;;10.63;44.06;100175.78;4894316;28;101465;-81
2022/04/10 11:19:36;;;;;;;3.50;1.30;;;;;;;10.73;43.77;100167.56;4911948;28;97937;-83
2022/04/10 11:22:03;;;;;;;4.50;1.75;;;;;;;10.80;44.56;100166.44;4864523;28;97415;-83
2022/04/10 11:24:29;;;;;;;6.00;1.80;;;;;;;10.80;44.74;100155.94;4882262;28;101490;-86
2022/04/10 11:26:54;;;;;;;6.03;2.10;;;;;;;10.74;44.97;100140.44;4914333;28;97130;-84
2022/04/10 11:29:20;;;;;;;6.30;2.42;;;;;;;10.69;44.97;100166.00;4866762;28;96988;-85
2022/04/10 11:31:52;;;;;;;5.35;2.05;;;;;;;10.60;42.30;100148.81;4865971;28;96920;-85
2022/04/10 11:34:28;;;;;;;4.40;1.75;;;;;;;10.72;41.14;100155.38;4882410;28;97603;-86
2022/04/10 11:37:00;;;;;;;5.20;1.60;;;;;;;10.71;41.18;100149.28;4880252;28;101900;-86
2022/04/10 11:39:28;;;;;;;;;;;;;;;10.78;41.53;100161.25;4881610;28;96876;-84